Time;durP1;ratioP1;P1;durP2;ratioP2;P2;SDS_P1;SDS_P2;PMS_P1;PMS_P2;Temp;Humidity;BMP_temperature;BMP_pressure;BME280_temperature;BME280_humidity;BME280_pressure;Samples;Min_cycle;Max_cycle;Signal;HPM_P1;HPM_P2
2022/04/25 00:01:19;;;;;;;1.00;1.00;;;8.40;99.90;;;;;;5030739;28;20036;-55
2022/04/25 00:03:46;;;;;;;2.45;1.20;;;8.30;99.90;;;;;;5030889;28;20105;-53
2022/04/25 00:06:11;;;;;;;0.93;0.93;;;8.30;99.90;;;;;;5030670;28;20056;-53
2022/04/25 00:08:37;;;;;;;3.60;1.20;;;8.40;99.90;;;;;;5031061;28;20026;-53
2022/04/25 00:11:03;;;;;;;1.33;0.90;;;8.40;99.90;;;;;;5031426;28;20072;-52
2022/04/25 00:13:29;;;;;;;1.08;1.08;;;8.40;99.90;;;;;;5031045;28;20033;-54
2022/04/25 00:15:55;;;;;;;1.10;1.10;;;8.30;99.90;;;;;;5031136;28;20033;-54
2022/04/25 00:18:21;;;;;;;1.13;1.13;;;8.30;99.90;;;;;;5031281;28;20548;-52
2022/04/25 00:20:47;;;;;;;1.00;1.00;;;8.30;99.90;;;;;;5031268;28;20037;-54
2022/04/25 00:23:13;;;;;;;1.85;1.10;;;8.30;99.90;;;;;;5031157;28;20033;-53
2022/04/25 00:25:39;;;;;;;1.33;1.33;;;8.40;99.90;;;;;;5031331;28;20376;-54
2022/04/25 00:28:05;;;;;;;1.17;1.17;;;8.40;99.90;;;;;;5031339;28;20030;-54
2022/04/25 00:30:31;;;;;;;1.08;1.08;;;8.30;99.90;;;;;;5030826;28;20036;-55
2022/04/25 00:32:58;;;;;;;1.20;1.20;;;8.20;99.90;;;;;;5031143;28;20104;-53
2022/04/25 00:35:24;;;;;;;1.00;1.00;;;8.30;99.90;;;;;;5031658;28;20026;-50
2022/04/25 00:37:51;;;;;;;1.10;1.10;;;8.30;99.90;;;;;;5034851;28;20044;-53
2022/04/25 00:40:22;;;;;;;1.17;1.17;;;8.40;99.90;;;;;;5034769;28;20018;-52
2022/04/25 00:42:48;;;;;;;1.10;1.10;;;8.40;99.90;;;;;;5034742;28;20048;-56
2022/04/25 00:45:15;;;;;;;1.10;1.10;;;8.30;99.90;;;;;;5034600;28;20171;-55
2022/04/25 00:47:42;;;;;;;0.90;0.90;;;8.40;99.90;;;;;;5034670;28;20033;-52
2022/04/25 00:50:08;;;;;;;1.00;1.00;;;8.40;99.90;;;;;;5034806;28;20030;-53
2022/04/25 00:52:35;;;;;;;1.85;1.20;;;8.40;99.90;;;;;;5033069;28;20534;-49
2022/04/25 00:55:03;;;;;;;1.10;1.10;;;8.40;99.90;;;;;;5034627;28;20029;-53
2022/04/25 00:57:30;;;;;;;1.00;1.00;;;8.30;99.90;;;;;;5034343;28;20132;-51
2022/04/25 00:59:58;;;;;;;0.90;0.90;;;8.30;99.90;;;;;;5034313;28;20026;-49
2022/04/25 01:02:26;;;;;;;2.22;1.90;;;8.40;99.90;;;;;;5033606;28;20404;-52
2022/04/25 01:04:53;;;;;;;1.20;1.20;;;8.30;99.90;;;;;;5034448;28;20044;-55
2022/04/25 01:07:18;;;;;;;1.10;1.10;;;8.30;99.90;;;;;;5034239;28;20029;-50
2022/04/25 01:09:44;;;;;;;1.13;1.13;;;8.30;99.90;;;;;;5034380;28;20405;-55
2022/04/25 01:12:10;;;;;;;1.30;1.30;;;8.30;99.90;;;;;;5034107;28;20029;-53
2022/04/25 01:14:35;;;;;;;1.42;1.20;;;8.40;99.90;;;;;;5031736;28;20061;-53
2022/04/25 01:17:02;;;;;;;1.10;1.10;;;8.40;99.90;;;;;;5033801;28;20435;-55
2022/04/25 01:19:28;;;;;;;1.30;1.20;;;8.40;99.90;;;;;;5033962;28;20071;-54
2022/04/25 01:22:14;;;;;;;3.92;1.50;;;8.30;99.90;;;;;;5034179;28;20112;-54
2022/04/25 01:27:23;;;;;;;1.20;1.20;;;8.30;99.90;;;;;;5033790;28;20040;-57
2022/04/25 01:29:54;;;;;;;2.15;1.30;;;8.30;99.90;;;;;;5033922;28;20017;-56
2022/04/25 01:32:24;;;;;;;1.48;1.33;;;8.30;99.90;;;;;;5033709;28;20516;-54
2022/04/25 01:34:50;;;;;;;1.10;1.10;;;8.30;99.90;;;;;;5034174;28;20461;-56
2022/04/25 01:37:17;;;;;;;1.52;1.20;;;8.30;99.90;;;;;;5033795;28;20021;-55
2022/04/25 01:39:48;;;;;;;1.15;1.08;;;8.30;99.90;;;;;;5033879;28;20104;-51
2022/04/25 01:42:15;;;;;;;1.10;1.10;;;8.40;99.90;;;;;;5033473;28;20053;-52
2022/04/25 01:44:40;;;;;;;1.30;1.30;;;8.40;99.90;;;;;;5033789;28;20036;-55
2022/04/25 01:47:06;;;;;;;1.10;1.10;;;8.40;99.90;;;;;;5032520;28;20110;-51
2022/04/25 01:49:33;;;;;;;1.20;1.20;;;8.40;99.90;;;;;;5032100;28;20029;-51
2022/04/25 01:52:31;;;;;;;1.20;1.20;;;8.30;99.90;;;;;;5033424;28;20021;-51
2022/04/25 01:54:57;;;;;;;1.33;1.30;;;8.30;99.90;;;;;;5033536;28;20021;-55
2022/04/25 01:57:23;;;;;;;1.98;1.10;;;8.40;99.90;;;;;;5033295;28;20393;-56
2022/04/25 01:59:49;;;;;;;1.33;1.23;;;8.40;99.90;;;;;;5033372;28;20025;-51
2022/04/25 02:02:15;;;;;;;1.38;1.30;;;8.30;99.90;;;;;;5033293;28;20029;-50
2022/04/25 02:04:41;;;;;;;1.50;1.40;;;8.30;99.90;;;;;;5033316;28;20169;-54
2022/04/25 02:07:09;;;;;;;1.63;1.50;;;8.30;99.90;;;;;;5033352;28;20116;-51
2022/04/25 02:09:35;;;;;;;1.42;1.40;;;8.30;99.90;;;;;;5033163;28;20396;-55
2022/04/25 02:12:01;;;;;;;1.90;1.38;;;8.40;99.90;;;;;;5033109;28;20112;-53
2022/04/25 02:14:31;;;;;;;1.30;1.30;;;8.40;99.90;;;;;;5032609;28;20496;-51
2022/04/25 02:17:00;;;;;;;1.30;1.30;;;8.30;99.90;;;;;;5033068;28;20342;-52
2022/04/25 02:19:27;;;;;;;2.65;1.45;;;8.40;99.90;;;;;;5032951;28;20108;-55
2022/04/25 02:21:53;;;;;;;1.85;1.20;;;8.40;99.90;;;;;;5033020;28;20410;-55
2022/04/25 02:24:20;;;;;;;1.88;1.38;;;8.30;99.90;;;;;;5032876;28;20116;-48
2022/04/25 02:26:48;;;;;;;1.23;1.23;;;8.30;99.90;;;;;;5032863;28;20440;-54
2022/04/25 02:29:13;;;;;;;1.58;1.48;;;8.30;99.90;;;;;;5032599;28;20021;-54
2022/04/25 02:31:39;;;;;;;1.42;1.40;;;8.30;99.90;;;;;;5032845;28;20343;-52
2022/04/25 02:34:04;;;;;;;1.20;1.20;;;8.30;99.90;;;;;;5032698;28;20060;-50
2022/04/25 02:36:31;;;;;;;1.48;1.38;;;8.40;99.90;;;;;;5032633;28;20054;-50
2022/04/25 02:38:56;;;;;;;1.20;1.20;;;8.50;99.90;;;;;;5031371;28;20500;-54
2022/04/25 02:41:22;;;;;;;1.27;1.25;;;8.50;99.90;;;;;;5032421;28;20033;-54
2022/04/25 02:43:47;;;;;;;4.05;1.10;;;8.40;99.90;;;;;;5032552;28;20026;-50
2022/04/25 02:46:16;;;;;;;1.20;1.20;;;8.40;99.90;;;;;;5032272;28;20029;-50
2022/04/25 02:48:44;;;;;;;2.15;1.30;;;8.50;99.90;;;;;;5032646;28;20473;-52
2022/04/25 02:51:11;;;;;;;2.25;1.40;;;8.40;99.90;;;;;;5032415;28;20103;-53
2022/04/25 02:53:38;;;;;;;1.45;1.13;;;8.40;99.90;;;;;;5032407;28;20029;-55
2022/04/25 02:56:05;;;;;;;1.30;1.20;;;8.40;99.90;;;;;;5032183;28;20040;-50
2022/04/25 02:58:32;;;;;;;1.30;1.20;;;8.30;99.90;;;;;;5030503;28;20030;-51
2022/04/25 03:00:59;;;;;;;1.02;1.02;;;8.40;99.90;;;;;;5032193;28;20591;-52
2022/04/25 03:03:25;;;;;;;3.75;1.17;;;8.40;99.90;;;;;;5031924;28;20661;-50
2022/04/25 03:05:52;;;;;;;1.35;1.23;;;8.30;99.90;;;;;;5031131;28;20506;-54
2022/04/25 03:08:20;;;;;;;1.70;1.40;;;8.30;99.90;;;;;;5031420;28;20190;-56
2022/04/25 03:10:47;;;;;;;1.10;1.10;;;8.30;99.90;;;;;;5031973;28;20024;-56
2022/04/25 03:13:14;;;;;;;1.25;1.25;;;8.30;99.90;;;;;;5031841;28;20029;-57
2022/04/25 03:15:40;;;;;;;1.25;1.15;;;8.30;99.90;;;;;;5031781;28;20033;-56
2022/04/25 03:18:07;;;;;;;1.25;1.15;;;8.30;99.90;;;;;;5031977;28;20026;-53
2022/04/25 03:20:33;;;;;;;1.40;1.30;;;8.40;99.90;;;;;;5031178;28;20026;-50
2022/04/25 03:22:59;;;;;;;1.20;1.20;;;8.50;99.90;;;;;;5031284;28;20615;-57
2022/04/25 03:25:24;;;;;;;1.77;1.48;;;8.50;99.90;;;;;;5030799;28;20033;-56
2022/04/25 03:27:50;;;;;;;1.30;1.30;;;8.40;99.90;;;;;;5031559;28;20033;-54
2022/04/25 03:30:17;;;;;;;1.00;1.00;;;8.50;99.90;;;;;;5031214;28;20041;-54
2022/04/25 03:32:45;;;;;;;1.30;1.20;;;8.50;99.90;;;;;;5031224;28;20112;-53
2022/04/25 03:35:14;;;;;;;1.27;1.27;;;8.40;99.90;;;;;;5031186;28;20032;-54
2022/04/25 03:37:40;;;;;;;1.10;1.10;;;8.40;99.90;;;;;;5031252;28;20025;-56
2022/04/25 03:40:08;;;;;;;1.00;1.00;;;8.50;99.90;;;;;;5030961;28;20021;-56
2022/04/25 03:42:34;;;;;;;1.30;1.10;;;8.50;99.90;;;;;;5031299;28;20065;-56
2022/04/25 03:45:00;;;;;;;0.90;0.90;;;8.50;99.90;;;;;;5031186;28;20056;-52
2022/04/25 03:47:29;;;;;;;1.45;1.30;;;8.50;99.90;;;;;;5031383;28;20051;-51
2022/04/25 03:49:54;;;;;;;2.13;1.20;;;8.50;99.90;;;;;;5031358;28;20611;-54
2022/04/25 03:52:20;;;;;;;2.25;1.30;;;8.50;99.90;;;;;;5030899;28;20101;-54
2022/04/25 03:57:30;;;;;;;1.20;1.20;;;8.50;99.90;;;;;;5031618;28;20071;-52
2022/04/25 03:59:55;;;;;;;1.23;1.23;;;8.50;99.90;;;;;;5030970;28;20069;-54
2022/04/25 04:02:21;;;;;;;1.15;1.15;;;8.40;99.90;;;;;;5031270;28;20033;-51
2022/04/25 04:04:48;;;;;;;1.17;1.17;;;8.40;99.90;;;;;;5031183;28;20117;-55
2022/04/25 04:07:13;;;;;;;1.10;1.10;;;8.40;99.90;;;;;;5031113;28;20659;-51
2022/04/25 04:09:45;;;;;;;1.30;1.30;;;8.40;99.90;;;;;;5031561;28;20057;-52
2022/04/25 04:12:15;;;;;;;1.10;1.10;;;8.40;99.90;;;;;;5034758;28;20484;-54
2022/04/25 04:14:42;;;;;;;2.70;1.38;;;8.40;99.90;;;;;;5034996;28;20049;-54
2022/04/25 04:17:08;;;;;;;1.50;1.40;;;8.40;99.90;;;;;;5035330;28;20053;-54
2022/04/25 04:19:38;;;;;;;1.10;1.10;;;8.40;99.90;;;;;;5034445;28;20037;-52
2022/04/25 04:22:04;;;;;;;5.07;1.17;;;8.50;99.90;;;;;;5033582;28;20026;-50
2022/04/25 04:24:31;;;;;;;2.35;1.13;;;8.50;99.90;;;;;;5034740;28;20057;-53
2022/04/25 04:27:03;;;;;;;1.10;1.10;;;8.50;99.90;;;;;;5034214;28;20075;-51
2022/04/25 04:29:30;;;;;;;1.25;1.25;;;8.60;99.90;;;;;;5034316;28;20112;-55
2022/04/25 04:32:05;;;;;;;1.20;1.20;;;8.60;99.90;;;;;;5034814;28;20025;-53
2022/04/25 04:34:32;;;;;;;1.20;1.20;;;8.60;99.90;;;;;;5034925;28;20045;-53
2022/04/25 04:36:59;;;;;;;1.00;1.00;;;8.60;99.90;;;;;;5034968;28;20357;-54
2022/04/25 04:39:24;;;;;;;1.27;1.17;;;8.70;99.90;;;;;;5034734;28;20461;-55
2022/04/25 04:41:50;;;;;;;1.20;1.20;;;8.70;99.90;;;;;;5034771;28;20029;-54
2022/04/25 04:44:17;;;;;;;1.13;1.13;;;8.70;99.90;;;;;;5034553;28;20338;-55
2022/04/25 04:46:43;;;;;;;1.90;1.80;;;8.70;99.90;;;;;;5034289;28;20037;-50
2022/04/25 04:49:09;;;;;;;1.83;1.10;;;8.60;99.90;;;;;;5034364;28;20041;-50
2022/04/25 04:51:35;;;;;;;1.73;1.63;;;8.60;99.90;;;;;;5034702;28;20025;-55
2022/04/25 04:54:02;;;;;;;1.20;1.20;;;8.50;99.90;;;;;;5034573;28;20037;-53
2022/04/25 04:56:30;;;;;;;1.42;1.33;;;8.70;99.90;;;;;;5033643;28;20029;-54
2022/04/25 04:58:57;;;;;;;1.10;1.10;;;8.70;99.90;;;;;;5033560;28;20074;-50
2022/04/25 05:01:22;;;;;;;1.45;1.38;;;8.70;99.90;;;;;;5033723;28;20064;-56
2022/04/25 05:03:48;;;;;;;1.20;1.20;;;8.80;99.90;;;;;;5034492;28;20060;-53
2022/04/25 05:06:14;;;;;;;1.33;1.23;;;8.80;99.90;;;;;;5034281;28;20040;-53
2022/04/25 05:08:40;;;;;;;1.30;1.20;;;8.70;99.90;;;;;;5033719;28;20021;-51
2022/04/25 05:11:09;;;;;;;1.45;1.40;;;8.80;99.90;;;;;;5034191;28;20461;-54
2022/04/25 05:13:36;;;;;;;1.45;1.35;;;8.70;99.90;;;;;;5033574;28;20357;-56
2022/04/25 05:16:03;;;;;;;1.20;1.20;;;8.70;99.90;;;;;;5034127;28;20104;-55
2022/04/25 05:18:32;;;;;;;2.08;1.88;;;8.60;99.90;;;;;;5033965;28;20025;-56
2022/04/25 05:20:58;;;;;;;1.60;1.50;;;8.70;99.90;;;;;;5034122;28;20043;-54
2022/04/25 05:23:25;;;;;;;1.50;1.40;;;8.80;99.90;;;;;;5033834;28;20416;-56
2022/04/25 05:25:51;;;;;;;1.80;1.70;;;8.80;99.90;;;;;;5034009;28;20033;-53
2022/04/25 05:28:16;;;;;;;1.88;1.70;;;8.90;99.90;;;;;;5033605;28;20036;-50
2022/04/25 05:30:43;;;;;;;1.90;1.80;;;8.80;99.90;;;;;;5033357;28;20057;-52
2022/04/25 05:33:09;;;;;;;1.63;1.52;;;8.70;99.90;;;;;;5033651;28;20029;-51
2022/04/25 05:35:36;;;;;;;2.08;1.88;;;8.80;99.90;;;;;;5032862;28;20071;-55
2022/04/25 05:38:02;;;;;;;1.88;1.77;;;8.80;99.90;;;;;;5032904;28;20032;-55
2022/04/25 05:40:28;;;;;;;1.75;1.65;;;8.80;99.90;;;;;;5031067;28;20017;-50
2022/04/25 05:42:56;;;;;;;2.10;2.00;;;8.90;99.90;;;;;;5033067;28;20377;-49
2022/04/25 05:45:24;;;;;;;2.50;2.33;;;8.90;99.90;;;;;;5032485;28;20414;-54
2022/04/25 05:47:55;;;;;;;2.72;2.53;;;8.90;99.90;;;;;;5032330;28;20125;-56
2022/04/25 05:53:06;;;;;;;4.55;2.30;;;9.10;99.90;;;;;;5032317;28;20109;-56
2022/04/25 05:55:31;;;;;;;3.00;2.78;;;9.10;99.90;;;;;;5031820;28;20168;-52
2022/04/25 05:57:58;;;;;;;2.65;2.45;;;9.10;99.90;;;;;;5032180;28;20264;-56
2022/04/25 06:00:25;;;;;;;2.47;2.28;;;9.10;99.90;;;;;;5032013;28;20053;-53
2022/04/25 06:02:51;;;;;;;2.60;2.40;;;9.00;99.90;;;;;;5031903;28;20032;-52
2022/04/25 06:05:17;;;;;;;2.10;1.95;;;9.10;99.90;;;;;;5031832;28;20029;-53
2022/04/25 06:07:45;;;;;;;2.50;2.30;;;9.20;99.90;;;;;;5031865;28;20503;-48
2022/04/25 06:10:12;;;;;;;2.72;2.53;;;9.20;99.90;;;;;;5031792;28;20061;-53
2022/04/25 06:12:43;;;;;;;2.60;2.40;;;9.20;99.90;;;;;;5032044;28;20100;-50
2022/04/25 06:15:09;;;;;;;2.53;2.33;;;9.20;99.90;;;;;;5031803;28;20064;-52
2022/04/25 06:17:38;;;;;;;2.42;2.22;;;9.10;99.90;;;;;;5031124;28;20045;-52
2022/04/25 06:20:06;;;;;;;4.82;2.65;;;9.20;99.90;;;;;;5031776;28;20026;-51
2022/04/25 06:22:32;;;;;;;2.35;2.15;;;9.20;99.90;;;;;;5031594;28;20021;-50
2022/04/25 06:24:57;;;;;;;2.45;2.25;;;9.20;99.90;;;;;;5031863;28;20025;-55
2022/04/25 06:27:23;;;;;;;2.22;2.10;;;9.30;99.90;;;;;;5031296;28;20121;-54
2022/04/25 06:29:49;;;;;;;3.05;2.75;;;9.40;99.90;;;;;;5031921;28;20371;-54
2022/04/25 06:32:15;;;;;;;3.20;2.90;;;9.20;99.90;;;;;;5031264;28;20027;-54
2022/04/25 06:34:41;;;;;;;3.83;2.92;;;9.20;99.90;;;;;;5031073;28;20025;-51
2022/04/25 06:37:07;;;;;;;3.22;2.65;;;9.20;99.90;;;;;;5031606;28;20025;-50
2022/04/25 06:39:33;;;;;;;3.00;2.70;;;9.50;99.90;;;;;;5030868;28;20024;-53
2022/04/25 06:42:00;;;;;;;3.10;2.80;;;9.50;99.90;;;;;;5032017;28;20044;-53
2022/04/25 06:44:26;;;;;;;2.90;2.70;;;9.50;99.90;;;;;;5031685;28;20025;-48
2022/04/25 06:46:52;;;;;;;4.43;3.47;;;9.50;99.90;;;;;;5031440;28;20018;-51
2022/04/25 06:49:20;;;;;;;8.48;5.95;;;9.50;99.90;;;;;;5031108;28;20074;-54
2022/04/25 06:51:47;;;;;;;4.65;3.95;;;9.50;99.90;;;;;;5031651;28;20056;-55
2022/04/25 06:54:14;;;;;;;5.95;5.00;;;9.50;99.90;;;;;;5031458;28;20021;-54
2022/04/25 06:56:41;;;;;;;12.30;8.10;;;9.60;99.90;;;;;;5031418;28;20028;-54
2022/04/25 06:59:06;;;;;;;12.32;4.75;;;9.50;99.90;;;;;;5031831;28;20029;-52
2022/04/25 07:01:32;;;;;;;13.50;5.00;;;9.50;99.90;;;;;;5031644;28;20029;-56
2022/04/25 07:03:59;;;;;;;7.20;4.85;;;9.40;99.90;;;;;;5031790;28;20033;-57
2022/04/25 07:06:25;;;;;;;3.67;3.38;;;9.40;99.90;;;;;;5031152;28;20022;-49
2022/04/25 07:08:52;;;;;;;4.20;3.80;;;9.30;99.90;;;;;;5030799;28;20033;-55
2022/04/25 07:11:17;;;;;;;4.15;3.75;;;9.30;99.90;;;;;;5030602;28;20045;-49
2022/04/25 07:13:45;;;;;;;4.22;3.83;;;9.30;99.90;;;;;;5029824;28;20453;-54
2022/04/25 07:16:12;;;;;;;6.38;3.17;;;9.30;99.90;;;;;;5030943;28;20365;-52
2022/04/25 07:18:38;;;;;;;7.10;3.35;;;9.30;99.90;;;;;;5030521;28;20026;-54
2022/04/25 07:29:27;;;;;;;4.45;3.70;;;9.80;99.90;;;;;;5031595;28;20028;-55
2022/04/25 07:31:53;;;;;;;6.85;4.63;;;9.90;99.90;;;;;;5031758;28;20017;-53
2022/04/25 07:34:20;;;;;;;14.68;3.90;;;10.10;99.90;;;;;;5031291;28;20030;-53
2022/04/25 07:36:51;;;;;;;6.53;3.67;;;10.10;99.90;;;;;;5031485;28;20026;-53
2022/04/25 07:39:20;;;;;;;4.00;3.60;;;10.30;99.90;;;;;;5031136;28;20380;-55
2022/04/25 07:41:47;;;;;;;3.90;3.60;;;10.50;99.90;;;;;;5031206;28;20018;-53
2022/04/25 07:44:13;;;;;;;4.13;3.63;;;10.70;99.90;;;;;;5031142;28;20047;-52
2022/04/25 07:46:40;;;;;;;4.38;3.97;;;10.60;99.90;;;;;;5030687;28;20021;-52
2022/04/25 07:49:08;;;;;;;11.75;8.32;;;10.80;99.90;;;;;;5031536;28;20172;-56
2022/04/25 07:51:33;;;;;;;8.18;4.68;;;10.80;99.90;;;;;;5031350;28;20025;-53
2022/04/25 07:53:59;;;;;;;7.03;5.65;;;10.80;99.90;;;;;;5031257;28;20061;-54
2022/04/25 07:56:26;;;;;;;5.65;4.80;;;10.80;99.90;;;;;;5031335;28;20025;-51
2022/04/25 07:58:52;;;;;;;8.63;5.38;;;10.70;99.90;;;;;;5031191;28;20029;-53
2022/04/25 08:01:17;;;;;;;4.40;4.00;;;10.80;99.90;;;;;;5031390;28;20087;-54
2022/04/25 08:03:43;;;;;;;4.45;4.05;;;10.60;99.90;;;;;;5031333;28;20025;-53
2022/04/25 08:06:11;;;;;;;7.65;4.20;;;10.70;99.90;;;;;;5031395;28;20031;-50
2022/04/25 08:08:37;;;;;;;5.22;4.70;;;10.40;99.90;;;;;;5031055;28;20025;-55
2022/04/25 08:11:03;;;;;;;6.40;5.72;;;10.40;99.90;;;;;;5031240;28;20373;-53
2022/04/25 08:18:58;;;;;;;6.80;5.85;;;10.50;99.90;;;;;;5031048;28;20095;-51
2022/04/25 08:21:24;;;;;;;6.95;6.22;;;10.50;99.90;;;;;;5029728;28;20071;-53
2022/04/25 08:23:50;;;;;;;10.27;6.43;;;10.40;99.90;;;;;;5029822;28;20524;-50
2022/04/25 08:26:16;;;;;;;6.57;5.93;;;10.40;99.90;;;;;;5029843;28;20040;-51
2022/04/25 08:28:41;;;;;;;10.30;6.43;;;10.40;99.90;;;;;;5029834;28;20025;-51
2022/04/25 08:31:09;;;;;;;8.48;6.90;;;10.50;99.90;;;;;;5031190;28;20105;-53
2022/04/25 08:33:36;;;;;;;11.27;7.47;;;10.50;99.90;;;;;;5030558;28;20432;-54
2022/04/25 08:36:03;;;;;;;8.43;7.35;;;10.30;99.90;;;;;;5030710;28;20024;-52
2022/04/25 08:38:29;;;;;;;8.65;7.68;;;10.20;99.90;;;;;;5029972;28;20073;-48
2022/04/25 08:40:55;;;;;;;9.65;7.80;;;10.30;99.90;;;;;;5030546;28;20535;-54
2022/04/25 08:43:23;;;;;;;9.05;8.00;;;10.30;99.90;;;;;;5030142;28;20034;-54
2022/04/25 08:45:50;;;;;;;9.48;8.48;;;10.10;99.90;;;;;;5030817;28;20099;-56
2022/04/25 08:48:18;;;;;;;9.13;8.23;;;10.10;99.90;;;;;;5030910;28;20025;-54
2022/04/25 08:50:46;;;;;;;9.55;8.02;;;10.20;99.90;;;;;;5030992;28;20026;-49
2022/04/25 08:53:13;;;;;;;11.30;8.52;;;10.20;99.90;;;;;;5030696;28;20026;-55
2022/04/25 08:55:40;;;;;;;10.60;8.73;;;10.20;99.90;;;;;;5030970;28;20108;-54
2022/04/25 08:58:06;;;;;;;9.48;8.30;;;9.90;99.90;;;;;;5034060;28;20385;-55
2022/04/25 09:00:32;;;;;;;10.85;8.98;;;10.10;99.90;;;;;;5034439;28;20517;-53
2022/04/25 09:02:58;;;;;;;10.05;8.00;;;10.20;99.90;;;;;;5034343;28;20025;-55
2022/04/25 09:05:24;;;;;;;11.15;8.35;;;10.20;99.90;;;;;;5034293;28;20025;-49
2022/04/25 09:07:50;;;;;;;9.50;8.27;;;10.20;99.90;;;;;;5033205;28;20036;-55
2022/04/25 09:10:18;;;;;;;10.38;8.65;;;10.50;99.90;;;;;;5034320;28;20408;-53
2022/04/25 09:12:49;;;;;;;9.60;8.15;;;10.80;99.90;;;;;;5032900;28;20029;-55
2022/04/25 09:15:19;;;;;;;10.98;8.18;;;11.10;99.90;;;;;;5033906;28;20497;-57
2022/04/25 09:17:46;;;;;;;10.73;8.52;;;11.60;99.90;;;;;;5034452;28;20370;-51
2022/04/25 09:20:12;;;;;;;13.55;8.95;;;11.80;99.90;;;;;;5033964;28;20476;-55
2022/04/25 09:22:40;;;;;;;9.98;8.80;;;11.70;99.90;;;;;;5034022;28;20037;-56
2022/04/25 09:25:07;;;;;;;13.88;9.35;;;11.80;99.90;;;;;;5034061;28;20037;-54
2022/04/25 09:27:33;;;;;;;9.13;8.07;;;11.80;99.90;;;;;;5033827;28;20108;-52
2022/04/25 09:30:31;;;;;;;11.35;9.30;;;11.50;99.90;;;;;;5033951;28;20104;-52
2022/04/25 09:32:57;;;;;;;11.13;9.05;;;11.10;99.90;;;;;;5032296;28;20184;-53
2022/04/25 09:35:32;;;;;;;13.25;10.20;;;10.90;99.90;;;;;;5033970;28;20361;-50
2022/04/25 09:38:00;;;;;;;12.45;10.23;;;10.80;99.90;;;;;;5035114;28;20395;-50
2022/04/25 09:40:29;;;;;;;18.88;10.48;;;10.60;99.90;;;;;;5053277;28;20021;-52
2022/04/25 09:43:07;;;;;;;15.05;11.38;;;10.50;99.90;;;;;;5053516;28;20021;-54
2022/04/25 09:45:34;;;;;;;15.98;9.85;;;10.60;99.90;;;;;;5053317;28;20029;-53
2022/04/25 09:48:00;;;;;;;12.38;10.25;;;10.70;99.90;;;;;;5053515;28;20025;-53
2022/04/25 09:50:27;;;;;;;11.15;9.05;;;11.10;99.90;;;;;;5053400;28;20033;-54
2022/04/25 09:52:58;;;;;;;12.40;10.52;;;11.50;99.90;;;;;;5052647;28;20092;-53
2022/04/25 09:55:29;;;;;;;10.60;9.10;;;11.80;99.90;;;;;;5053305;28;20468;-55
2022/04/25 09:57:56;;;;;;;9.32;8.32;;;12.10;99.90;;;;;;5053506;28;20111;-52
2022/04/25 10:00:39;;;;;;;9.75;7.70;;;12.60;99.90;;;;;;5053173;28;20081;-54
2022/04/25 10:03:06;;;;;;;11.95;10.30;;;12.80;99.90;;;;;;5053363;28;20032;-51
2022/04/25 10:05:49;;;;;;;14.32;9.73;;;12.60;99.90;;;;;;5053042;28;20094;-55
2022/04/25 10:08:17;;;;;;;11.82;10.43;;;13.30;99.90;;;;;;5052284;28;20142;-53
2022/04/25 10:10:48;;;;;;;11.13;9.55;;;13.40;99.90;;;;;;5053129;28;20163;-55
2022/04/25 10:13:14;;;;;;;11.45;10.05;;;13.60;99.90;;;;;;5052990;28;20108;-54
2022/04/25 10:15:41;;;;;;;12.30;10.38;;;13.70;99.90;;;;;;5052800;28;20384;-50
2022/04/25 10:18:09;;;;;;;10.38;9.27;;;13.10;99.90;;;;;;5052979;28;20032;-51
2022/04/25 10:20:36;;;;;;;12.77;10.82;;;12.80;99.90;;;;;;5052826;28;20031;-54
2022/04/25 10:23:10;;;;;;;13.40;10.23;;;12.90;99.90;;;;;;5052922;28;20029;-52
2022/04/25 10:25:38;;;;;;;11.93;10.10;;;12.70;99.90;;;;;;5052806;28;20025;-52
2022/04/25 10:28:13;;;;;;;13.55;10.52;;;12.70;99.90;;;;;;5052851;28;20021;-54
2022/04/25 10:30:45;;;;;;;12.88;11.48;;;12.50;99.90;;;;;;5051950;28;20411;-54
2022/04/25 10:33:21;;;;;;;16.25;10.88;;;12.60;99.90;;;;;;5052265;28;20040;-52
2022/04/25 10:35:49;;;;;;;13.18;10.73;;;12.50;99.90;;;;;;5052656;28;20116;-52
2022/04/25 10:44:19;;;;;;;13.25;11.07;;;12.10;99.90;;;;;;5052607;28;20441;-55
2022/04/25 10:47:03;;;;;;;16.52;11.75;;;12.30;99.90;;;;;;5052556;28;20496;-54
2022/04/25 10:49:36;;;;;;;12.00;10.80;;;12.80;99.90;;;;;;5052113;28;20021;-56
2022/04/25 10:52:04;;;;;;;13.90;11.77;;;13.30;99.90;;;;;;5052285;28;20031;-55
2022/04/25 10:54:51;;;;;;;13.85;11.13;;;13.30;99.90;;;;;;5051945;28;20029;-56
2022/04/25 10:57:18;;;;;;;11.70;10.18;;;14.30;99.90;;;;;;5050860;28;20033;-48
2022/04/25 10:59:44;;;;;;;12.32;10.98;;;14.80;99.90;;;;;;5021433;28;20052;-53
2022/04/25 11:02:25;;;;;;;9.93;8.93;;;15.00;99.90;;;;;;5022279;28;20064;-54
2022/04/25 11:05:10;;;;;;;11.65;10.30;;;14.90;99.90;;;;;;5041750;28;20033;-54
2022/04/25 11:07:37;;;;;;;10.93;9.68;;;15.40;99.70;;;;;;5029178;28;20501;-50
2022/04/25 11:10:07;;;;;;;10.15;9.15;;;15.70;99.90;;;;;;5042096;28;20029;-52
2022/04/25 11:12:58;;;;;;;10.45;9.35;;;15.80;99.90;;;;;;5041056;28;20159;-54
2022/04/25 11:15:44;;;;;;;10.77;9.48;;;15.40;98.60;;;;;;5041142;28;20132;-52
2022/04/25 11:18:34;;;;;;;13.60;9.80;;;15.60;99.90;;;;;;5020533;28;20025;-52
2022/04/25 11:21:07;;;;;;;17.25;13.27;;;15.30;99.20;;;;;;5041272;28;20116;-54
2022/04/25 11:23:53;;;;;;;12.70;9.43;;;15.10;97.30;;;;;;5041436;28;20089;-54
2022/04/25 11:26:25;;;;;;;11.73;10.02;;;14.90;99.30;;;;;;5038847;28;20664;-54
2022/04/25 11:29:03;;;;;;;12.60;9.55;;;15.30;99.30;;;;;;5041279;28;20052;-55
2022/04/25 11:31:33;;;;;;;17.38;12.88;;;15.40;98.50;;;;;;5040641;28;20025;-53
2022/04/25 11:34:13;;;;;;;17.10;15.23;;;15.00;97.70;;;;;;5040486;28;20086;-55
2022/04/25 11:36:44;;;;;;;12.63;10.25;;;15.20;98.10;;;;;;5040708;28;20074;-56
2022/04/25 11:41:58;;;;;;;11.60;9.63;;;14.40;97.90;;;;;;5040678;28;20063;-57
2022/04/25 11:44:24;;;;;;;14.93;9.82;;;14.10;99.60;;;;;;5040742;28;20033;-53
2022/04/25 11:46:51;;;;;;;10.50;8.68;;;13.90;98.90;;;;;;5040787;28;20082;-49
2022/04/25 11:49:31;;;;;;;10.05;9.02;;;14.00;98.70;;;;;;5040071;28;20040;-55
2022/04/25 11:52:00;;;;;;;11.80;10.55;;;13.90;99.40;;;;;;5037123;28;20034;-55
2022/04/25 11:54:29;;;;;;;11.20;10.00;;;14.20;99.60;;;;;;5021794;28;20443;-54
2022/04/25 11:57:02;;;;;;;11.90;9.43;;;14.30;98.50;;;;;;5020771;28;20029;-56
2022/04/25 11:59:29;;;;;;;13.07;9.80;;;15.10;98.30;;;;;;5019744;28;20057;-53
2022/04/25 12:01:55;;;;;;;9.70;8.63;;;16.60;96.30;;;;;;5020355;28;20272;-55
2022/04/25 12:04:30;;;;;;;9.13;8.18;;;18.00;92.60;;;;;;5020945;28;20037;-54
2022/04/25 12:07:03;;;;;;;9.07;8.18;;;18.80;86.00;;;;;;5020682;28;20046;-56
2022/04/25 12:15:35;;;;;;;8.80;7.72;;;21.90;75.60;;;;;;5021803;28;20504;-56
2022/04/25 12:18:22;;;;;;;9.02;8.07;;;19.60;70.40;;;;;;5021280;28;20032;-56
2022/04/25 12:20:50;;;;;;;10.38;9.38;;;17.40;78.40;;;;;;5020374;28;20029;-56
2022/04/25 12:23:25;;;;;;;10.68;9.57;;;17.60;80.00;;;;;;5020298;28;20033;-53
2022/04/25 12:25:52;;;;;;;11.95;9.23;;;16.80;81.10;;;;;;5019260;28;20045;-56
2022/04/25 12:28:20;;;;;;;9.07;8.18;;;17.20;82.70;;;;;;5019850;28;20065;-56
2022/04/25 12:30:50;;;;;;;13.43;8.88;;;16.20;82.40;;;;;;5021031;28;20473;-57
2022/04/25 12:33:18;;;;;;;10.00;8.73;;;16.30;84.30;;;;;;5023474;28;20116;-57
2022/04/25 12:35:46;;;;;;;9.05;7.80;;;16.80;84.20;;;;;;5024354;28;20038;-56
2022/04/25 12:38:32;;;;;;;11.27;10.07;;;17.70;82.10;;;;;;5024659;28;20025;-56
2022/04/25 12:40:58;;;;;;;10.25;9.15;;;16.70;83.00;;;;;;5023452;28;20025;-53
2022/04/25 12:43:38;;;;;;;13.52;10.13;;;16.50;85.50;;;;;;5024192;28;20118;-57
2022/04/25 12:46:06;;;;;;;11.70;10.30;;;15.60;89.00;;;;;;5024445;28;20033;-54
2022/04/25 12:49:00;;;;;;;15.07;10.40;;;15.00;90.50;;;;;;5024405;28;20034;-57
2022/04/25 12:51:52;;;;;;;10.68;9.35;;;14.60;91.40;;;;;;5023857;28;20124;-54
2022/04/25 12:54:37;;;;;;;10.93;8.75;;;15.50;91.10;;;;;;5023154;28;20064;-58
2022/04/25 12:57:21;;;;;;;9.05;7.57;;;17.50;85.00;;;;;;5023792;28;20049;-52
2022/04/25 12:59:59;;;;;;;7.35;6.65;;;19.70;77.00;;;;;;5024311;28;20060;-57
2022/04/25 13:02:35;;;;;;;8.32;7.43;;;20.90;73.40;;;;;;5023937;28;20034;-56
2022/04/25 13:05:07;;;;;;;9.68;8.32;;;21.10;66.70;;;;;;5023569;28;20079;-55
2022/04/25 13:07:42;;;;;;;11.35;8.23;;;19.40;71.20;;;;;;5024183;28;20048;-57
2022/04/25 13:10:10;;;;;;;9.02;8.13;;;17.60;72.70;;;;;;5024119;28;20025;-57
2022/04/25 13:12:39;;;;;;;9.18;8.05;;;17.10;74.60;;;;;;5023636;28;20083;-53
2022/04/25 13:15:13;;;;;;;8.55;7.53;;;18.20;73.40;;;;;;5023564;28;20049;-56
2022/04/25 13:17:39;;;;;;;9.40;8.10;;;18.40;75.50;;;;;;5023608;28;20025;-57
2022/04/25 13:20:08;;;;;;;9.45;8.23;;;19.50;69.90;;;;;;5023734;28;20477;-56
2022/04/25 13:22:34;;;;;;;8.07;7.07;;;18.50;71.30;;;;;;5022376;28;20064;-55
2022/04/25 13:25:00;;;;;;;8.52;7.43;;;17.50;73.40;;;;;;5023432;28;20457;-57
2022/04/25 13:27:26;;;;;;;9.35;7.93;;;17.00;73.40;;;;;;5022741;28;22452;-54
2022/04/25 13:29:52;;;;;;;10.82;7.75;;;16.90;73.90;;;;;;5023585;28;20038;-53
2022/04/25 13:32:18;;;;;;;12.05;8.38;;;17.10;75.80;;;;;;5023294;28;20552;-53